메인 페이지
METAR-TAF:

METAR-TAF

공항 :

그란카나리아 섬, 스페인

위도: 27-56N, 경도: 015-23W, 고도: 23m

현재 날씨관측

예보는 33분 전, 11:30시(UTC)에 발표되었습니다.
동북동8kt북동풍과 풍을 오가는
온도 24°C
습도 69%
기압 1015 hPa
시정 10km 이상
고도 6000ft 상공 구름 조금

METAR: GCLP 201130Z 07008KT 040V100 9999 FEW060 24/18 Q1015 NOSIG

시각: 13:03 (12:03 UTC)

예보

예보는 4 시간 3분 전, 08:00시(UTC)에 발표되었습니다.
예보 대상 시간: 20일 09시부터 21일 09시까지 (UTC)
북북서10kt
시정 10km 이상
고도 3500ft 상공 구름 보통
전환 중
20일 10시부터 20일 12시까지 (UTC)
북동8kt
전환 중
20일 19시부터 20일 21시까지 (UTC)
서북서10kt
확률 30% :
일시적
20일 10시부터 20일 17시까지 (UTC)

TAF: GCLP 200800Z 2009/2109 34010KT 9999 SCT035 TX25/2014Z TN19/2105Z BECMG 2010/2012 05008KT BECMG 2019/2021 30010KT PROB30 TEMPO 2010/2017 RA

4,000개 이상의 공항 관측 자료 및 예보 (METAR 및 TAF 보고).

지도상에서 검색 가능한 기상관측소가 노란 점과 빨간 점으로 표시되어 있습니다.

기상관측소 명을 보려면 표시 위로 마우스를 이동하세요.

날씨 관측과 예보를 보려면 클릭하세요.

지도 변경 : 확대하려면 엑스 표시가 있는 녹색 버튼, 축소하려면 빼기 표시가 있는 녹색 버튼, 다음 페이지의 지도를 보려면 녹색 화살표를 클릭하세요.


METAR-TAF: